Time;durP1;ratioP1;P1;durP2;ratioP2;P2;SDS_P1;SDS_P2;PMS_P1;PMS_P2;Temp;Humidity;BMP_temperature;BMP_pressure;BME280_temperature;BME280_humidity;BME280_pressure;Samples;Min_cycle;Max_cycle;Signal;HPM_P1;HPM_P2
2022/09/19 00:00:40;;;;;;;1.47;1.20;;;;;;;;;;5020163;28;20203;-87
2022/09/19 00:03:07;;;;;;;1.73;1.63;;;;;;;;;;5020621;28;20207;-87
2022/09/19 00:05:34;;;;;;;1.70;1.30;;;;;;;;;;5018698;28;20227;-88
2022/09/19 00:08:01;;;;;;;1.60;1.50;;;;;;;;;;5019755;28;20604;-87
2022/09/19 00:10:28;;;;;;;1.30;1.23;;;;;;;;;;5019495;28;20231;-87
2022/09/19 00:12:57;;;;;;;1.70;1.60;;;;;;;;;;5020931;28;20218;-87
2022/09/19 00:15:24;;;;;;;1.10;1.10;;;;;;;;;;5018605;28;20620;-87
2022/09/19 00:17:51;;;;;;;1.30;1.20;;;;;;;;;;5020358;28;20229;-87
2022/09/19 00:20:18;;;;;;;3.77;1.60;;;;;;;;;;5019585;28;20235;-89
2022/09/19 00:24:45;;;;;;;1.30;1.30;;;;;;;;;;5020172;28;20204;-87
2022/09/19 00:25:32;;;;;;;2.67;1.33;;;;;;;;;;5020073;28;20317;-87
2022/09/19 00:28:01;;;;;;;1.57;1.47;;;;;;;;;;5019993;28;20235;-88
2022/09/19 00:30:28;;;;;;;1.30;1.30;;;;;;;;;;5019831;28;20235;-88
2022/09/19 00:32:57;;;;;;;1.40;1.30;;;;;;;;;;5020450;28;20218;-86
2022/09/19 00:35:24;;;;;;;1.13;1.13;;;;;;;;;;5018596;28;20258;-88
2022/09/19 00:37:51;;;;;;;3.70;1.63;;;;;;;;;;5020010;28;20235;-88
2022/09/19 00:40:18;;;;;;;2.27;1.30;;;;;;;;;;5018738;28;20239;-87
2022/09/19 00:42:45;;;;;;;1.40;1.30;;;;;;;;;;5019827;28;20584;-88
2022/09/19 00:45:16;;;;;;;2.10;1.40;;;;;;;;;;5019451;28;20242;-88
2022/09/19 00:47:47;;;;;;;1.40;1.30;;;;;;;;;;5019772;28;20786;-88
2022/09/19 00:50:19;;;;;;;1.20;1.20;;;;;;;;;;5019649;28;20605;-88
2022/09/19 00:52:48;;;;;;;1.23;1.20;;;;;;;;;;5019235;28;20672;-88
2022/09/19 00:55:15;;;;;;;2.70;1.40;;;;;;;;;;5018545;28;20239;-89
2022/09/19 00:57:46;;;;;;;2.50;1.30;;;;;;;;;;5019303;28;20227;-89
2022/09/19 01:00:15;;;;;;;1.57;1.47;;;;;;;;;;5017839;28;20235;-88
2022/09/19 01:02:43;;;;;;;2.67;1.80;;;;;;;;;;5020171;28;20203;-88
2022/09/19 01:05:11;;;;;;;1.70;1.50;;;;;;;;;;5016002;28;20235;-88
2022/09/19 01:07:45;;;;;;;1.50;1.40;;;;;;;;;;5005972;28;20239;-88
2022/09/19 01:10:19;;;;;;;2.03;1.53;;;;;;;;;;5018570;28;20233;-88
2022/09/19 01:12:51;;;;;;;1.40;1.40;;;;;;;;;;5019255;28;20212;-88
2022/09/19 01:15:28;;;;;;;2.73;2.00;;;;;;;;;;5018640;28;20315;-88
2022/09/19 01:17:58;;;;;;;3.00;1.40;;;;;;;;;;5019015;28;20723;-86
2022/09/19 01:20:50;;;;;;;1.70;1.23;;;;;;;;;;5018721;28;20235;-88
2022/09/19 01:23:26;;;;;;;2.87;1.60;;;;;;;;;;5001359;28;20243;-86
2022/09/19 01:25:58;;;;;;;5.33;1.80;;;;;;;;;;5019892;28;20302;-87
2022/09/19 01:28:29;;;;;;;2.50;1.70;;;;;;;;;;5019471;28;20271;-87
2022/09/19 01:33:40;;;;;;;8.17;1.90;;;;;;;;;;5016195;28;20231;-88
2022/09/19 01:36:09;;;;;;;2.70;1.40;;;;;;;;;;5017658;28;20254;-87
2022/09/19 01:38:39;;;;;;;1.33;1.30;;;;;;;;;;5017269;28;20738;-87
2022/09/19 01:41:08;;;;;;;2.20;1.60;;;;;;;;;;5017968;28;20311;-88
2022/09/19 01:46:45;;;;;;;1.77;1.63;;;;;;;;;;5017947;28;20202;-88
2022/09/19 01:49:18;;;;;;;4.47;1.40;;;;;;;;;;5017145;28;20326;-88
2022/09/19 01:51:47;;;;;;;2.77;1.47;;;;;;;;;;5018004;28;20198;-87
2022/09/19 01:54:22;;;;;;;1.80;1.47;;;;;;;;;;5017567;28;20231;-88
2022/09/19 01:56:53;;;;;;;1.47;1.37;;;;;;;;;;5017470;28;20667;-87
2022/09/19 01:59:38;;;;;;;2.37;1.40;;;;;;;;;;5018903;28;20247;-87
2022/09/19 02:02:12;;;;;;;4.23;2.37;;;;;;;;;;5023915;28;20212;-88
2022/09/19 02:04:44;;;;;;;1.60;1.50;;;;;;;;;;5014757;28;20235;-87
2022/09/19 02:07:15;;;;;;;3.03;1.50;;;;;;;;;;5015205;28;20204;-88
2022/09/19 02:09:45;;;;;;;2.13;1.40;;;;;;;;;;5014334;28;20230;-88
2022/09/19 02:12:12;;;;;;;4.47;1.63;;;;;;;;;;5015251;28;20238;-88
2022/09/19 02:14:41;;;;;;;3.13;1.43;;;;;;;;;;5014573;28;20258;-89
2022/09/19 02:17:10;;;;;;;4.33;1.83;;;;;;;;;;5015355;28;20713;-88
2022/09/19 02:19:42;;;;;;;2.20;1.60;;;;;;;;;;5014433;28;20235;-88
2022/09/19 02:22:10;;;;;;;1.77;1.40;;;;;;;;;;5015331;28;20196;-88
2022/09/19 02:24:40;;;;;;;3.27;1.50;;;;;;;;;;5014966;28;20238;-88
2022/09/19 02:27:09;;;;;;;3.70;1.53;;;;;;;;;;5015022;28;20203;-87
2022/09/19 02:29:37;;;;;;;2.37;2.00;;;;;;;;;;5014181;28;20251;-88
2022/09/19 02:32:05;;;;;;;6.87;1.83;;;;;;;;;;5014473;28;20215;-88
2022/09/19 02:34:38;;;;;;;5.03;2.17;;;;;;;;;;5015069;28;20238;-87
2022/09/19 02:37:09;;;;;;;6.57;1.87;;;;;;;;;;5014469;28;20231;-88
2022/09/19 02:39:42;;;;;;;3.00;1.63;;;;;;;;;;5013838;28;20742;-88
2022/09/19 02:42:12;;;;;;;5.70;1.83;;;;;;;;;;5014358;28;20207;-86
2022/09/19 02:44:49;;;;;;;4.83;1.80;;;;;;;;;;5013313;28;20235;-87
2022/09/19 02:47:18;;;;;;;4.07;1.97;;;;;;;;;;5014169;28;20257;-87
2022/09/19 02:49:49;;;;;;;6.60;2.07;;;;;;;;;;5013450;28;20235;-88
2022/09/19 02:52:17;;;;;;;4.57;1.90;;;;;;;;;;5013732;28;20203;-87
2022/09/19 02:54:47;;;;;;;3.87;1.90;;;;;;;;;;5012686;28;20235;-87
2022/09/19 02:57:17;;;;;;;2.73;2.00;;;;;;;;;;5013447;28;20254;-87
2022/09/19 02:59:46;;;;;;;5.03;2.10;;;;;;;;;;5011749;28;20814;-86
2022/09/19 03:02:16;;;;;;;1.63;1.53;;;;;;;;;;5013106;28;20234;-88
2022/09/19 03:04:45;;;;;;;5.20;2.40;;;;;;;;;;5012714;28;20391;-88
2022/09/19 03:07:15;;;;;;;5.43;2.10;;;;;;;;;;5012913;28;20203;-86
2022/09/19 03:09:47;;;;;;;5.10;1.90;;;;;;;;;;5012642;28;20231;-86
2022/09/19 03:12:19;;;;;;;5.93;1.90;;;;;;;;;;5013247;28;20187;-89
2022/09/19 03:14:46;;;;;;;4.30;2.23;;;;;;;;;;5012567;28;20262;-88
2022/09/19 03:17:16;;;;;;;3.70;1.70;;;;;;;;;;5013105;28;20227;-88
2022/09/19 03:19:46;;;;;;;10.30;2.43;;;;;;;;;;5012705;28;20263;-88
2022/09/19 03:22:14;;;;;;;3.93;1.87;;;;;;;;;;5013185;28;20535;-85
2022/09/19 03:24:41;;;;;;;2.77;1.90;;;;;;;;;;5015688;28;20262;-88
2022/09/19 03:27:09;;;;;;;5.90;1.87;;;;;;;;;;5016622;28;20206;-85
2022/09/19 03:29:36;;;;;;;9.17;2.20;;;;;;;;;;5016234;28;20263;-87
2022/09/19 03:32:03;;;;;;;4.13;1.87;;;;;;;;;;5016518;28;20294;-86
2022/09/19 03:34:32;;;;;;;1.97;1.63;;;;;;;;;;5015502;28;20261;-86
2022/09/19 03:37:00;;;;;;;5.93;2.17;;;;;;;;;;5015939;28;20704;-86
2022/09/19 03:39:28;;;;;;;4.97;2.43;;;;;;;;;;5015392;28;20322;-87
2022/09/19 03:41:55;;;;;;;3.47;1.87;;;;;;;;;;5015992;28;20234;-86
2022/09/19 03:44:22;;;;;;;2.70;1.90;;;;;;;;;;5015355;28;20787;-85
2022/09/19 03:46:50;;;;;;;3.43;1.77;;;;;;;;;;5007961;28;20668;-85
2022/09/19 03:49:19;;;;;;;3.27;1.97;;;;;;;;;;5015240;28;20631;-87
2022/09/19 03:51:46;;;;;;;6.60;2.03;;;;;;;;;;5015849;28;20243;-87
2022/09/19 03:54:13;;;;;;;5.93;2.17;;;;;;;;;;5015306;28;20243;-87
2022/09/19 03:56:41;;;;;;;5.80;2.03;;;;;;;;;;5015682;28;20231;-86
2022/09/19 03:59:08;;;;;;;5.77;2.10;;;;;;;;;;5015129;28;20244;-87
2022/09/19 04:01:36;;;;;;;8.27;2.30;;;;;;;;;;5015635;28;20203;-86
2022/09/19 04:04:04;;;;;;;4.60;1.87;;;;;;;;;;5015103;28;20711;-85
2022/09/19 04:06:31;;;;;;;9.40;4.37;;;;;;;;;;5015592;28;20231;-87
2022/09/19 04:09:00;;;;;;;4.27;2.30;;;;;;;;;;5036617;23;20322;-83
2022/09/19 04:11:27;;;;;;;5.60;2.13;;;;;;;;;;5021999;28;20200;-83
2022/09/19 04:13:55;;;;;;;3.90;2.87;;;;;;;;;;5015102;28;20263;-83
2022/09/19 04:16:24;;;;;;;5.27;2.90;;;;;;;;;;5015230;28;20215;-82
2022/09/19 04:18:52;;;;;;;12.23;3.97;;;;;;;;;;5002961;28;20239;-81
2022/09/19 04:21:19;;;;;;;8.80;4.90;;;;;;;;;;4995827;28;20204;-82
2022/09/19 04:23:47;;;;;;;11.13;2.97;;;;;;;;;;4994841;28;20243;-84
2022/09/19 04:26:14;;;;;;;4.17;3.13;;;;;;;;;;4995700;28;20211;-84
2022/09/19 04:28:42;;;;;;;8.23;3.00;;;;;;;;;;4987239;28;20239;-83
2022/09/19 04:31:12;;;;;;;5.90;2.20;;;;;;;;;;4995592;28;20711;-83
2022/09/19 04:33:39;;;;;;;6.63;2.17;;;;;;;;;;4993563;28;20799;-84
2022/09/19 04:36:08;;;;;;;4.77;2.17;;;;;;;;;;4989856;28;20241;-83
2022/09/19 04:38:36;;;;;;;6.60;1.93;;;;;;;;;;4982709;28;20262;-83
2022/09/19 04:41:04;;;;;;;7.37;2.30;;;;;;;;;;4994176;28;20215;-86
2022/09/19 04:43:32;;;;;;;9.83;2.57;;;;;;;;;;4995090;28;20603;-85
2022/09/19 04:45:59;;;;;;;7.87;2.50;;;;;;;;;;4995553;28;20208;-83
2022/09/19 04:48:28;;;;;;;5.70;2.47;;;;;;;;;;4994352;28;20228;-85
2022/09/19 04:50:56;;;;;;;7.60;2.30;;;;;;;;;;4995433;28;20203;-84
2022/09/19 04:53:24;;;;;;;6.00;2.27;;;;;;;;;;4994339;28;20228;-83
2022/09/19 04:55:51;;;;;;;5.60;2.30;;;;;;;;;;4995109;28;20196;-83
2022/09/19 04:58:19;;;;;;;8.63;2.50;;;;;;;;;;4994556;28;20598;-83
2022/09/19 05:00:50;;;;;;;9.00;2.40;;;;;;;;;;4995108;28;20208;-84
2022/09/19 05:03:19;;;;;;;5.10;2.20;;;;;;;;;;4994597;28;20212;-85
2022/09/19 05:05:50;;;;;;;8.27;3.07;;;;;;;;;;5000117;28;20241;-85
2022/09/19 05:08:18;;;;;;;4.03;2.73;;;;;;;;;;5014002;28;20239;-84
2022/09/19 05:10:46;;;;;;;3.83;2.03;;;;;;;;;;5015662;28;20211;-87
2022/09/19 05:13:13;;;;;;;6.80;2.33;;;;;;;;;;5014595;28;20215;-84
2022/09/19 05:15:41;;;;;;;10.50;2.90;;;;;;;;;;5015328;28;20212;-84
2022/09/19 05:18:08;;;;;;;6.83;3.10;;;;;;;;;;5006726;28;20442;-85
2022/09/19 05:20:37;;;;;;;5.30;2.27;;;;;;;;;;4994029;28;20235;-85
2022/09/19 05:23:05;;;;;;;6.37;2.40;;;;;;;;;;4996122;28;20212;-85
2022/09/19 05:25:36;;;;;;;5.83;2.63;;;;;;;;;;4996276;28;20235;-85
2022/09/19 05:28:06;;;;;;;5.07;2.80;;;;;;;;;;4997546;28;20767;-86
2022/09/19 05:30:33;;;;;;;4.93;2.50;;;;;;;;;;4996259;28;20248;-84
2022/09/19 05:33:00;;;;;;;4.60;2.70;;;;;;;;;;4997124;28;20219;-85
2022/09/19 05:35:27;;;;;;;6.17;2.63;;;;;;;;;;5005968;28;20236;-85
2022/09/19 05:37:56;;;;;;;4.20;2.10;;;;;;;;;;5000858;28;20238;-85
2022/09/19 05:40:24;;;;;;;6.40;2.40;;;;;;;;;;4995983;28;20259;-84
2022/09/19 05:42:52;;;;;;;6.80;2.37;;;;;;;;;;4990407;28;20215;-85
2022/09/19 05:45:20;;;;;;;4.67;2.27;;;;;;;;;;4995068;28;20240;-85
2022/09/19 05:47:49;;;;;;;8.90;2.33;;;;;;;;;;4995962;28;20278;-85
2022/09/19 05:50:16;;;;;;;6.03;2.67;;;;;;;;;;4994971;28;20341;-84
2022/09/19 05:55:44;;;;;;;3.70;2.30;;;;;;;;;;4955312;29;20249;-84
2022/09/19 05:58:13;;;;;;;5.33;2.30;;;;;;;;;;4953215;28;20236;-84
2022/09/19 06:00:40;;;;;;;4.20;2.33;;;;;;;;;;4967520;28;20208;-83
2022/09/19 06:03:08;;;;;;;10.67;3.70;;;;;;;;;;4981059;28;20207;-83
2022/09/19 06:05:40;;;;;;;4.93;2.40;;;;;;;;;;4979873;28;20683;-85
2022/09/19 06:08:07;;;;;;;7.13;3.20;;;;;;;;;;4993379;28;20628;-84
2022/09/19 06:10:35;;;;;;;8.77;3.30;;;;;;;;;;4993109;28;20707;-84
2022/09/19 06:13:04;;;;;;;8.63;2.93;;;;;;;;;;4991411;28;20207;-85
2022/09/19 06:15:31;;;;;;;7.47;2.60;;;;;;;;;;4994785;28;20240;-84
2022/09/19 06:17:58;;;;;;;9.10;2.50;;;;;;;;;;4993106;28;20228;-85
2022/09/19 06:20:31;;;;;;;9.90;3.30;;;;;;;;;;4992599;28;20236;-84
2022/09/19 06:23:00;;;;;;;5.07;2.60;;;;;;;;;;4996296;28;20587;-85
2022/09/19 06:25:28;;;;;;;5.83;2.90;;;;;;;;;;5012954;28;20239;-85
2022/09/19 06:27:55;;;;;;;5.43;2.63;;;;;;;;;;5013107;28;20587;-85
2022/09/19 06:30:25;;;;;;;8.00;3.63;;;;;;;;;;5013031;28;20929;-84
2022/09/19 06:32:53;;;;;;;8.83;3.33;;;;;;;;;;5013046;28;20227;-84
2022/09/19 06:35:21;;;;;;;4.97;2.90;;;;;;;;;;5014264;28;20786;-84
2022/09/19 06:37:48;;;;;;;10.57;2.70;;;;;;;;;;5012982;28;20235;-85
2022/09/19 06:40:17;;;;;;;4.23;2.73;;;;;;;;;;5012646;28;20703;-84
2022/09/19 06:42:44;;;;;;;7.73;3.10;;;;;;;;;;5013339;28;20236;-84
2022/09/19 06:45:11;;;;;;;8.17;3.17;;;;;;;;;;5012589;28;20270;-85
2022/09/19 06:47:43;;;;;;;8.73;2.43;;;;;;;;;;5008798;28;20188;-84
2022/09/19 06:50:16;;;;;;;3.97;2.40;;;;;;;;;;4992792;28;20726;-85
2022/09/19 06:52:46;;;;;;;8.20;2.87;;;;;;;;;;4993098;28;20283;-84
2022/09/19 06:55:14;;;;;;;6.93;2.77;;;;;;;;;;4992502;28;20239;-84
2022/09/19 06:57:41;;;;;;;3.67;2.60;;;;;;;;;;4993503;28;20212;-85
2022/09/19 07:00:08;;;;;;;7.70;2.80;;;;;;;;;;4997030;28;20240;-84
2022/09/19 07:02:36;;;;;;;12.50;2.70;;;;;;;;;;4997208;28;20270;-85
2022/09/19 07:05:04;;;;;;;10.50;2.77;;;;;;;;;;4996694;28;20235;-84
2022/09/19 07:07:32;;;;;;;6.87;2.57;;;;;;;;;;4997111;28;20624;-85
2022/09/19 07:09:59;;;;;;;10.50;3.13;;;;;;;;;;4997646;28;20243;-84
2022/09/19 07:12:26;;;;;;;10.03;3.07;;;;;;;;;;4999543;28;20222;-85
2022/09/19 07:14:54;;;;;;;9.47;2.80;;;;;;;;;;4996907;28;20616;-84
2022/09/19 07:17:21;;;;;;;8.13;3.07;;;;;;;;;;4997158;28;20219;-84
2022/09/19 07:19:48;;;;;;;9.33;2.67;;;;;;;;;;4996574;28;20747;-84
2022/09/19 07:22:18;;;;;;;10.37;3.33;;;;;;;;;;4997273;28;20621;-85
2022/09/19 07:24:45;;;;;;;5.87;2.83;;;;;;;;;;4996823;28;20267;-85
2022/09/19 07:27:12;;;;;;;7.40;2.73;;;;;;;;;;4998438;28;20772;-84
2022/09/19 07:29:39;;;;;;;10.60;2.83;;;;;;;;;;4996540;28;20239;-84
2022/09/19 07:32:07;;;;;;;6.33;2.73;;;;;;;;;;4997155;28;20212;-84
2022/09/19 07:34:34;;;;;;;8.33;2.50;;;;;;;;;;4996259;28;20286;-84
2022/09/19 07:37:01;;;;;;;6.77;2.43;;;;;;;;;;4982655;28;20240;-84
2022/09/19 07:39:31;;;;;;;3.93;2.50;;;;;;;;;;4976094;28;20244;-85
2022/09/19 07:41:58;;;;;;;5.53;2.67;;;;;;;;;;4996174;28;20208;-85
2022/09/19 07:44:26;;;;;;;3.53;2.33;;;;;;;;;;5015981;28;20231;-85
2022/09/19 07:49:39;;;;;;;7.97;2.70;;;;;;;;;;4977762;28;20732;-84
2022/09/19 07:52:07;;;;;;;7.30;2.73;;;;;;;;;;4976791;28;20200;-85
2022/09/19 07:54:35;;;;;;;7.43;2.63;;;;;;;;;;4976425;28;20239;-84
2022/09/19 07:57:02;;;;;;;7.33;2.70;;;;;;;;;;4976507;28;20236;-85
2022/09/19 07:59:29;;;;;;;7.27;2.87;;;;;;;;;;4985749;28;20239;-85
2022/09/19 08:01:56;;;;;;;3.47;2.17;;;;;;;;;;5007950;28;20202;-84
2022/09/19 08:04:24;;;;;;;5.80;2.53;;;;;;;;;;5015564;28;20242;-85
2022/09/19 08:06:51;;;;;;;4.30;2.77;;;;;;;;;;5025946;28;20207;-84
2022/09/19 08:09:18;;;;;;;5.03;2.50;;;;;;;;;;5014947;28;20239;-84
2022/09/19 08:11:47;;;;;;;5.07;2.43;;;;;;;;;;5015662;28;20199;-84
2022/09/19 08:14:14;;;;;;;5.10;2.43;;;;;;;;;;5014840;28;20258;-85
2022/09/19 08:16:41;;;;;;;4.93;2.77;;;;;;;;;;5014626;28;20203;-84
2022/09/19 08:19:10;;;;;;;4.47;2.60;;;;;;;;;;5014200;28;20262;-84
2022/09/19 08:21:38;;;;;;;6.33;2.97;;;;;;;;;;5010167;28;20557;-84
2022/09/19 08:24:05;;;;;;;5.23;2.80;;;;;;;;;;4977619;28;20235;-84
2022/09/19 08:26:32;;;;;;;5.10;2.80;;;;;;;;;;4975784;28;20193;-85
2022/09/19 08:29:01;;;;;;;5.43;3.00;;;;;;;;;;4975407;28;20244;-85
2022/09/19 08:31:28;;;;;;;5.57;2.93;;;;;;;;;;4975984;28;20315;-85
2022/09/19 08:33:56;;;;;;;3.47;2.47;;;;;;;;;;4973937;28;20670;-84
2022/09/19 08:36:23;;;;;;;6.03;2.57;;;;;;;;;;4975403;28;20233;-84
2022/09/19 08:38:50;;;;;;;6.13;3.03;;;;;;;;;;4967895;28;20252;-86
2022/09/19 08:41:33;;;;;;;3.97;2.57;;;;;;;;;;4989343;28;20213;-85
2022/09/19 08:44:07;;;;;;;4.13;2.30;;;;;;;;;;4977883;28;20244;-85
2022/09/19 08:46:39;;;;;;;4.80;2.50;;;;;;;;;;4977928;28;20208;-85
2022/09/19 08:49:09;;;;;;;4.70;2.33;;;;;;;;;;4987808;28;20247;-84
2022/09/19 08:51:45;;;;;;;6.27;2.73;;;;;;;;;;4979828;28;20193;-85
2022/09/19 08:54:14;;;;;;;5.03;2.50;;;;;;;;;;4977250;28;20242;-86
2022/09/19 08:56:42;;;;;;;7.80;2.67;;;;;;;;;;4977615;28;20215;-86
2022/09/19 08:59:13;;;;;;;4.53;2.53;;;;;;;;;;4975478;28;20236;-85
2022/09/19 09:01:41;;;;;;;2.83;2.27;;;;;;;;;;4976266;28;20204;-85
2022/09/19 09:04:16;;;;;;;4.03;2.20;;;;;;;;;;4974968;28;20613;-85
2022/09/19 09:06:46;;;;;;;4.57;2.20;;;;;;;;;;4977297;28;20216;-84
2022/09/19 09:09:19;;;;;;;6.10;2.30;;;;;;;;;;4982779;28;20264;-85
2022/09/19 09:11:51;;;;;;;5.03;2.37;;;;;;;;;;4985704;28;20203;-85
2022/09/19 09:14:26;;;;;;;6.30;2.40;;;;;;;;;;5001126;28;20243;-85
2022/09/19 09:16:58;;;;;;;5.93;2.50;;;;;;;;;;4990004;28;20235;-86
2022/09/19 09:19:33;;;;;;;7.00;2.40;;;;;;;;;;4999837;28;20232;-86
2022/09/19 09:22:06;;;;;;;6.00;2.43;;;;;;;;;;4996122;28;20219;-86
2022/09/19 09:24:35;;;;;;;5.57;1.90;;;;;;;;;;4994782;28;20239;-85
2022/09/19 09:27:04;;;;;;;5.47;2.30;;;;;;;;;;4994936;28;20226;-87
2022/09/19 09:29:34;;;;;;;5.50;2.40;;;;;;;;;;4994646;28;20244;-84
2022/09/19 09:32:03;;;;;;;5.47;2.40;;;;;;;;;;4996501;28;20208;-84
2022/09/19 09:34:35;;;;;;;5.93;3.03;;;;;;;;;;4994841;28;20246;-85
2022/09/19 09:37:04;;;;;;;3.03;2.73;;;;;;;;;;4995018;28;20223;-86
2022/09/19 09:39:39;;;;;;;5.90;2.63;;;;;;;;;;4993342;28;20606;-86
2022/09/19 09:42:10;;;;;;;7.80;4.33;;;;;;;;;;4994668;28;20208;-86
2022/09/19 09:44:44;;;;;;;3.63;2.37;;;;;;;;;;4993934;28;20240;-86
2022/09/19 09:47:24;;;;;;;6.87;2.37;;;;;;;;;;4994886;28;20193;-86
2022/09/19 09:49:53;;;;;;;5.60;2.37;;;;;;;;;;4993205;28;20240;-86
2022/09/19 09:52:27;;;;;;;5.67;2.37;;;;;;;;;;4994199;28;20211;-85
2022/09/19 09:57:47;;;;;;;3.93;2.13;;;;;;;;;;4974100;28;20823;-85
2022/09/19 10:06:03;;;;;;;5.60;2.17;;;;;;;;;;4989899;28;20211;-87
2022/09/19 10:08:33;;;;;;;4.57;2.17;;;;;;;;;;5010048;23;20591;-87
2022/09/19 10:11:04;;;;;;;5.23;2.50;;;;;;;;;;5006101;28;20683;-86
2022/09/19 10:13:36;;;;;;;3.73;2.27;;;;;;;;;;5010349;28;20234;-87
2022/09/19 10:16:04;;;;;;;6.00;2.30;;;;;;;;;;5012770;28;20207;-87
2022/09/19 10:18:37;;;;;;;9.80;2.50;;;;;;;;;;5012060;28;20242;-87
2022/09/19 10:21:04;;;;;;;5.13;2.40;;;;;;;;;;5012941;28;20307;-86
2022/09/19 10:23:33;;;;;;;4.33;2.27;;;;;;;;;;5012272;28;20235;-88
2022/09/19 10:26:02;;;;;;;2.57;1.83;;;;;;;;;;5012993;28;20196;-88
2022/09/19 10:28:31;;;;;;;3.63;1.93;;;;;;;;;;5011801;28;20233;-87
2022/09/19 10:30:59;;;;;;;4.27;1.90;;;;;;;;;;5012769;28;20204;-87
2022/09/19 10:33:31;;;;;;;3.77;2.23;;;;;;;;;;5011926;28;20199;-87
2022/09/19 10:36:04;;;;;;;4.50;2.30;;;;;;;;;;5012607;28;20805;-87
2022/09/19 10:38:38;;;;;;;6.87;2.23;;;;;;;;;;5011761;28;20321;-86
2022/09/19 10:41:05;;;;;;;4.00;2.20;;;;;;;;;;5012750;28;20203;-86
2022/09/19 10:43:33;;;;;;;4.50;1.83;;;;;;;;;;5012192;28;20253;-88
2022/09/19 10:46:06;;;;;;;3.40;1.90;;;;;;;;;;5012141;28;20234;-87
2022/09/19 10:48:35;;;;;;;3.08;1.85;;;;;;;;;;5011915;28;20243;-87
2022/09/19 10:51:08;;;;;;;4.53;1.85;;;;;;;;;;5012519;28;20242;-88
2022/09/19 10:53:36;;;;;;;4.70;1.48;;;;;;;;;;5012079;28;20241;-86
2022/09/19 10:56:05;;;;;;;3.08;2.25;;;;;;;;;;5012174;28;20203;-86
2022/09/19 10:58:39;;;;;;;5.28;1.90;;;;;;;;;;5011336;28;20283;-87
2022/09/19 11:01:08;;;;;;;3.20;1.95;;;;;;;;;;5012585;28;20195;-87
2022/09/19 11:03:39;;;;;;;3.97;1.70;;;;;;;;;;5011850;28;20285;-87
2022/09/19 11:06:12;;;;;;;4.10;1.83;;;;;;;;;;5012390;28;20238;-87
2022/09/19 11:08:44;;;;;;;3.47;1.67;;;;;;;;;;5011018;28;20270;-86
2022/09/19 11:11:25;;;;;;;3.40;2.05;;;;;;;;;;5012603;28;20258;-87
2022/09/19 11:14:08;;;;;;;3.17;1.77;;;;;;;;;;5011628;28;20239;-86
2022/09/19 11:16:40;;;;;;;5.78;2.10;;;;;;;;;;5011976;28;20211;-87
2022/09/19 11:19:16;;;;;;;4.83;1.73;;;;;;;;;;5011174;28;20312;-87
2022/09/19 11:21:50;;;;;;;3.28;1.58;;;;;;;;;;5011720;28;20242;-87
2022/09/19 11:24:39;;;;;;;4.50;1.70;;;;;;;;;;5004999;28;20231;-88
2022/09/19 11:27:19;;;;;;;2.95;1.50;;;;;;;;;;5012147;28;20196;-87
2022/09/19 11:29:53;;;;;;;2.17;1.70;;;;;;;;;;5011277;28;20247;-87
2022/09/19 11:32:28;;;;;;;3.05;1.40;;;;;;;;;;5011937;28;20649;-87
2022/09/19 11:34:59;;;;;;;2.47;1.73;;;;;;;;;;5011251;28;20288;-86
2022/09/19 11:37:34;;;;;;;9.40;1.63;;;;;;;;;;5011981;28;20211;-87
2022/09/19 11:40:09;;;;;;;4.40;1.63;;;;;;;;;;5011081;28;20293;-87
2022/09/19 11:42:43;;;;;;;3.10;1.60;;;;;;;;;;5011734;28;20195;-87
2022/09/19 11:45:14;;;;;;;4.43;1.70;;;;;;;;;;5013972;28;20231;-86
2022/09/19 11:47:50;;;;;;;6.28;1.75;;;;;;;;;;4997904;28;20212;-86
2022/09/19 11:50:29;;;;;;;3.63;1.50;;;;;;;;;;5005568;28;20579;-85
2022/09/19 11:53:03;;;;;;;7.45;2.03;;;;;;;;;;5015651;28;20191;-86
2022/09/19 11:55:36;;;;;;;5.13;1.70;;;;;;;;;;5014870;28;20607;-86
2022/09/19 11:58:07;;;;;;;5.95;2.03;;;;;;;;;;5014963;28;20234;-86
2022/09/19 12:00:37;;;;;;;3.83;2.08;;;;;;;;;;5015292;28;20223;-86
2022/09/19 12:03:16;;;;;;;3.35;1.48;;;;;;;;;;5004706;28;20211;-86
2022/09/19 12:05:53;;;;;;;2.55;1.27;;;;;;;;;;4994913;28;20298;-87
2022/09/19 12:08:25;;;;;;;4.45;1.65;;;;;;;;;;4994306;28;20228;-86
2022/09/19 12:10:56;;;;;;;4.63;1.42;;;;;;;;;;4995954;28;20243;-87
2022/09/19 12:13:25;;;;;;;5.63;1.20;;;;;;;;;;4995035;28;20215;-88
2022/09/19 12:15:55;;;;;;;5.63;1.70;;;;;;;;;;4995597;28;20671;-87
2022/09/19 12:18:23;;;;;;;2.83;1.42;;;;;;;;;;5010013;28;20231;-86
2022/09/19 12:20:54;;;;;;;8.38;1.90;;;;;;;;;;5008678;28;20203;-86
2022/09/19 12:26:11;;;;;;;2.40;1.50;;;;;;;;;;5015021;28;20202;-87
2022/09/19 12:28:40;;;;;;;6.65;1.67;;;;;;;;;;5014488;28;20277;-90
2022/09/19 12:31:09;;;;;;;3.67;1.55;;;;;;;;;;5014789;28;20244;-87
2022/09/19 12:33:39;;;;;;;4.57;1.52;;;;;;;;;;5014197;28;20223;-87
2022/09/19 12:36:11;;;;;;;4.10;1.48;;;;;;;;;;5014665;28;20663;-89
2022/09/19 12:38:40;;;;;;;6.85;1.60;;;;;;;;;;5014000;28;20239;-88
2022/09/19 12:41:13;;;;;;;4.50;1.88;;;;;;;;;;5014563;28;20609;-88
2022/09/19 12:43:43;;;;;;;2.10;1.42;;;;;;;;;;5014201;28;20253;-88
2022/09/19 12:46:16;;;;;;;2.58;1.15;;;;;;;;;;5014633;28;20215;-87
2022/09/19 12:48:48;;;;;;;5.47;1.52;;;;;;;;;;5014369;28;20641;-87
2022/09/19 12:51:22;;;;;;;3.60;1.33;;;;;;;;;;5014603;28;20238;-88
2022/09/19 12:53:51;;;;;;;4.60;1.50;;;;;;;;;;5014268;28;20258;-89
2022/09/19 12:56:23;;;;;;;2.72;1.17;;;;;;;;;;5013172;28;20200;-88
2022/09/19 12:58:57;;;;;;;3.58;1.38;;;;;;;;;;5013615;28;20240;-88
2022/09/19 13:01:31;;;;;;;4.80;1.30;;;;;;;;;;5008873;28;20202;-89
2022/09/19 13:04:18;;;;;;;2.58;1.30;;;;;;;;;;5014017;28;20702;-88
2022/09/19 13:06:47;;;;;;;5.25;1.48;;;;;;;;;;5026213;28;20663;-86
2022/09/19 13:09:17;;;;;;;5.68;1.60;;;;;;;;;;5018708;28;20630;-87
2022/09/19 13:11:47;;;;;;;4.05;1.42;;;;;;;;;;5020162;28;20195;-88
2022/09/19 13:14:16;;;;;;;3.22;1.52;;;;;;;;;;5014674;28;20231;-77
2022/09/19 13:25:14;;;;;;;3.63;1.10;;;;;;;;;;4952007;28;20280;-78
2022/09/19 13:27:45;;;;;;;6.20;1.48;;;;;;;;;;5000477;28;20295;-83
2022/09/19 13:30:28;;;;;;;6.22;1.30;;;;;;;;;;5013729;28;20607;-78
2022/09/19 13:32:57;;;;;;;3.35;1.35;;;;;;;;;;5012888;28;20207;-78
2022/09/19 13:35:25;;;;;;;3.47;1.48;;;;;;;;;;5013435;28;20274;-77
2022/09/19 13:37:56;;;;;;;4.35;1.13;;;;;;;;;;5012824;28;20711;-78
2022/09/19 13:40:32;;;;;;;3.00;1.20;;;;;;;;;;5013361;28;20235;-78
2022/09/19 13:43:02;;;;;;;4.78;1.05;;;;;;;;;;5014055;28;20221;-78
2022/09/19 13:45:32;;;;;;;3.40;1.20;;;;;;;;;;5013169;28;20770;-76
2022/09/19 13:48:04;;;;;;;2.42;1.00;;;;;;;;;;5013326;28;20602;-76
2022/09/19 13:50:34;;;;;;;5.63;1.55;;;;;;;;;;5013435;28;20235;-76
2022/09/19 13:53:06;;;;;;;4.60;1.50;;;;;;;;;;5013022;28;20262;-79
2022/09/19 13:55:35;;;;;;;2.20;1.05;;;;;;;;;;5013147;28;20749;-76
2022/09/19 13:58:19;;;;;;;4.05;1.35;;;;;;;;;;5012527;28;20210;-78
2022/09/19 14:00:48;;;;;;;3.58;1.38;;;;;;;;;;5007263;28;20234;-77
2022/09/19 14:03:23;;;;;;;3.42;1.15;;;;;;;;;;5012509;28;20223;-78
2022/09/19 14:05:50;;;;;;;6.38;1.55;;;;;;;;;;5014565;28;20207;-78
2022/09/19 14:08:34;;;;;;;4.13;1.40;;;;;;;;;;5015249;28;20227;-79
2022/09/19 14:11:03;;;;;;;4.10;1.75;;;;;;;;;;5013787;28;20262;-78
2022/09/19 14:13:35;;;;;;;2.08;1.10;;;;;;;;;;5012792;28;20611;-77
2022/09/19 14:16:06;;;;;;;2.33;1.15;;;;;;;;;;5013204;28;20208;-77
2022/09/19 14:18:43;;;;;;;4.25;1.40;;;;;;;;;;5013188;28;20243;-77
2022/09/19 14:21:11;;;;;;;4.20;1.30;;;;;;;;;;5011494;28;20285;-77
2022/09/19 14:23:40;;;;;;;3.88;1.67;;;;;;;;;;5001375;28;20301;-78
2022/09/19 14:26:28;;;;;;;1.45;0.88;;;;;;;;;;5011899;28;20207;-77
2022/09/19 14:29:02;;;;;;;3.42;1.38;;;;;;;;;;5011800;28;20234;-77
2022/09/19 14:31:34;;;;;;;0.70;0.68;;;;;;;;;;5003788;28;20211;-77
2022/09/19 14:34:19;;;;;;;1.38;0.80;;;;;;;;;;5016152;28;20318;-76
2022/09/19 14:37:01;;;;;;;5.05;1.20;;;;;;;;;;5012392;28;20246;-78
2022/09/19 14:39:44;;;;;;;1.08;1.02;;;;;;;;;;5011186;28;20235;-78
2022/09/19 14:42:23;;;;;;;4.20;1.30;;;;;;;;;;5012052;28;20671;-78
2022/09/19 14:45:09;;;;;;;2.60;0.98;;;;;;;;;;5010453;28;20317;-78
2022/09/19 14:47:38;;;;;;;3.47;1.10;;;;;;;;;;5015673;28;20286;-77
2022/09/19 14:50:08;;;;;;;1.90;0.90;;;;;;;;;;5011014;28;20239;-78
2022/09/19 14:52:37;;;;;;;3.35;1.10;;;;;;;;;;5013298;28;20231;-78
2022/09/19 14:55:09;;;;;;;1.85;0.93;;;;;;;;;;5011249;28;20231;-78
2022/09/19 14:57:45;;;;;;;3.60;1.35;;;;;;;;;;4993509;28;20247;-77
2022/09/19 15:00:22;;;;;;;2.90;1.00;;;;;;;;;;5010500;28;20231;-76
2022/09/19 15:02:49;;;;;;;2.78;1.00;;;;;;;;;;5023216;28;20206;-78
2022/09/19 15:05:19;;;;;;;3.80;1.05;;;;;;;;;;5019229;28;20273;-77
2022/09/19 15:07:46;;;;;;;1.50;1.15;;;;;;;;;;5026617;28;20195;-76
2022/09/19 15:10:30;;;;;;;1.88;1.13;;;;;;;;;;5027379;28;20238;-76
2022/09/19 15:12:57;;;;;;;3.35;1.13;;;;;;;;;;5009937;28;20211;-77
2022/09/19 15:15:27;;;;;;;1.67;1.00;;;;;;;;;;5009911;28;20284;-87
2022/09/19 15:17:55;;;;;;;1.65;1.05;;;;;;;;;;5012086;28;20207;-88
2022/09/19 15:20:22;;;;;;;2.80;2.00;;;;;;;;;;5014179;28;20245;-85
2022/09/19 15:22:52;;;;;;;3.42;1.30;;;;;;;;;;5015062;28;20207;-84
2022/09/19 15:25:21;;;;;;;4.43;1.60;;;;;;;;;;5008694;28;20650;-88
2022/09/19 15:27:52;;;;;;;6.63;1.15;;;;;;;;;;5014288;28;20704;-85
2022/09/19 15:30:21;;;;;;;2.58;1.10;;;;;;;;;;5010029;28;20228;-86
2022/09/19 15:32:49;;;;;;;2.53;1.00;;;;;;;;;;5012551;28;20297;-86